createdAt,value
2023-03-17T00:10:42.169Z,7
2023-03-17T00:25:52.474Z,6.9
2023-03-17T00:41:02.149Z,6.9
2023-03-17T00:56:12.527Z,6.8
2023-03-17T01:11:21.928Z,6.8
2023-03-17T01:26:32.192Z,6.8
2023-03-17T01:41:43.412Z,6.7
2023-03-17T01:56:53.175Z,6.7
2023-03-17T02:12:04.847Z,6.6
2023-03-17T02:27:14.734Z,6.7
2023-03-17T02:42:24.598Z,6.7
2023-03-17T02:57:36.631Z,6.7
2023-03-17T03:12:45.969Z,6.7
2023-03-17T03:27:55.944Z,6.6
2023-03-17T03:43:16.180Z,6.6
2023-03-17T03:58:34.487Z,6.5
2023-03-17T04:13:43.428Z,6.4
2023-03-17T04:28:53.081Z,6.6
2023-03-17T04:44:02.825Z,6.8
2023-03-17T04:59:12.134Z,6.6
2023-03-17T05:14:24.170Z,6.4
2023-03-17T05:31:26.003Z,6.9
2023-03-17T05:46:37.372Z,6.3
2023-03-17T06:01:47.039Z,6.2
2023-03-17T06:16:56.289Z,6.3
2023-03-17T06:32:19.112Z,6.4
2023-03-17T06:47:30.875Z,6.7
2023-03-17T07:02:40.527Z,6.9
2023-03-17T07:17:49.864Z,7.1
2023-03-17T07:33:00.330Z,7.4
2023-03-17T07:48:11.315Z,7.8
2023-03-17T08:03:22.081Z,8.1
2023-03-17T08:18:32.480Z,8.3
2023-03-17T08:33:42.705Z,8.6
2023-03-17T08:48:52.610Z,9
2023-03-17T09:04:02.639Z,9.6
2023-03-17T09:19:12.746Z,10.3
2023-03-17T09:34:22.947Z,11
2023-03-17T09:49:33.275Z,11.6
2023-03-17T10:04:43.594Z,12
2023-03-17T10:19:53.438Z,12.3
2023-03-17T10:35:03.245Z,12.7
2023-03-17T10:50:12.665Z,12.9
2023-03-17T11:05:22.447Z,13.3
2023-03-17T11:20:33.108Z,13.8
2023-03-17T11:35:42.686Z,13.9
2023-03-17T11:50:52.757Z,14.1
2023-03-17T12:06:02.638Z,14.5
2023-03-17T12:21:12.389Z,15.2
2023-03-17T12:36:24.564Z,15.7
2023-03-17T12:51:35.879Z,15.8
2023-03-17T13:06:48.314Z,15.6
2023-03-17T13:21:57.014Z,15.5
2023-03-17T13:37:06.477Z,15.8
2023-03-17T13:52:17.172Z,16
2023-03-17T14:07:27.239Z,16.1
2023-03-17T14:22:36.777Z,16
2023-03-17T14:37:46.113Z,15.9
2023-03-17T14:52:55.392Z,15.8
2023-03-17T15:08:05.142Z,15.8
2023-03-17T15:23:14.975Z,16
2023-03-17T15:38:24.490Z,15.8
2023-03-17T15:53:34.230Z,15.7
2023-03-17T16:08:44.699Z,15.4
2023-03-17T16:23:54.631Z,15.1
2023-03-17T16:39:04.496Z,14.8
2023-03-17T16:54:13.707Z,14.6
2023-03-17T17:09:24.068Z,14.4
2023-03-17T17:24:33.370Z,14.1
2023-03-17T17:39:43.195Z,14
2023-03-17T17:54:52.970Z,13.9
2023-03-17T18:10:02.477Z,13.7
2023-03-17T18:25:12.345Z,13.6
2023-03-17T18:40:24.597Z,13.7
2023-03-17T18:55:34.970Z,13.7
2023-03-17T19:10:44.549Z,13.6
2023-03-17T19:25:54.047Z,13.4
2023-03-17T19:41:45.971Z,13.6
2023-03-17T19:56:55.966Z,13.3
2023-03-17T20:12:05.638Z,13.3
2023-03-17T20:27:15.354Z,13.2
2023-03-17T20:42:24.991Z,13
2023-03-17T20:57:34.823Z,12.8
2023-03-17T21:12:47.067Z,12.5
2023-03-17T21:27:56.412Z,12.3
2023-03-17T21:43:05.999Z,12.1
2023-03-17T21:58:15.663Z,12.2
2023-03-17T22:13:25.432Z,12.1
2023-03-17T22:28:35.001Z,12.1
2023-03-17T22:43:45.165Z,12.1
2023-03-17T22:58:54.830Z,12.2
2023-03-17T23:14:04.605Z,12.3
2023-03-17T23:29:14.293Z,12.4
2023-03-17T23:44:23.900Z,12.3
2023-03-17T23:59:33.787Z,12.1
